Strona główna
METAR-TAF:

METAR-TAF

Lotnisko :

Port lotniczy Iwano-Frankiwsk

Iwano-Frankiwsk, Ukraina

Szerokość geograficzna: 48-53-03N, Długość geograficzna: 024-41-10E, wysokość: 280 m

Aktualna obserwacja pogody

Raport powstał 23 minut temu, godzina 22:30 UTC
Wiatr 2 kt od południe
Temperatura 10°C
Wilgotność 100%
Ciśnienie 1016 hPa
Widzialność: 9000 m

METAR: UKLI 172230Z 19001MPS 9000 NSC 10/10 Q1016 R28/090070 NOSIG

czas: 01:53 (22:53 UTC)

Prognoza

Raport powstał 2 godziny i 49 minut temu, godzina 20:04 UTC
Prognoza ważna od 17 godzina 21 UTC do 18 godzina 06 UTC
Wiatr 2 kt z kierunków zmiennych
Widzialność: 3000 m
Przerywane chmury na wysokości 3000 ft
zamglenie
Przejściowo
od 18 godzina 00 UTC do 18 godzina 04 UTC
Widzialność: 0500 m
na wysokości 300 ft
mgła

TAF: UKLI 172004Z 1721/1806 VRB01MPS 3000 BR BKN030 TEMPO 1800/1804 0500 FG VV003

Obserwacja i prognoza pogody dla ponad 4000 lotnisk (raport METAR i TAF).

Dostępne stacje oznaczono żółtymi i czerwonymi punktami na mapie.

Najedź kursorem aby zobaczyć nazwę stacji.

Kliknij aby zobaczyć obserwacje i prognozy pogody.

Aby zmienić mapę: kliknij na zielony przycisk z czarnym krzyżykiem, aby powiększyć; na zielony przycisk z myślnikiem, aby pomniejszyć; na zielone strzałki, aby przejść do map sąsiednich.


METAR-TAF: